PWSweather.com
Personal Weather Stations
Station Observations
K4FB1
Clubhouse Heritage, Lakeland, FL 33812

Clubhouse HeritageLakeland, FL 33812

Lat: 27.969224, Lon: -81.897769

Elevation: 145

Station Type: Davis Vantage Pro2

http://www.ClubhouseWX.com

High Low Average
Temperature 99.0°F37.2°C 72.9°F22.7°C 81.0°F27.2°C
Dew Point 79.6°F26.4°C 70.2°F21.2°C 73.8°F23.2°C
Winds 7.0 mph 11.3 kmh Calm Calm 2.0 mph ESE3.2 kmh ESE
Wind Gusts 16.0 mph25.7 kmh -- 5.0 mph8.0 kmh
Humidity 97% 44% 81%
Pressure 30.03 in1016.9 mb 29.94 in1013.9 mb -
Precipitation 1.06 in26.9 mm - -
Hour Temp Dew Point Humidity Winds Wind Gusts Pressure Precip Precip Rate Daily Precip Total
12:00 AM 80.2°F26.8°C 71.9°F22.2°C 76% 1.0 mph NNW1.6 kmh NNW 3.0 mph4.8 kmh 30.00 in1015.9 mb 0.00 in0.0 mm 0.00 in0.0 mm 0.00 in0.0 mm
12:05 AM 80.0°F26.7°C 71.8°F22.1°C 76% 1.0 mph N1.6 kmh N 3.0 mph4.8 kmh 30.00 in1015.9 mb 0.00 in0.0 mm 0.00 in0.0 mm 0.00 in0.0 mm
12:10 AM 79.9°F26.6°C 71.7°F22.1°C 76% 1.0 mph N1.6 kmh N 3.0 mph4.8 kmh 30.00 in1015.9 mb 0.00 in0.0 mm 0.00 in0.0 mm 0.00 in0.0 mm
12:15 AM 79.7°F26.5°C 71.5°F21.9°C 76% 1.0 mph N1.6 kmh N 2.0 mph3.2 kmh 30.00 in1015.9 mb 0.00 in0.0 mm 0.00 in0.0 mm 0.00 in0.0 mm
12:20 AM 79.6°F26.4°C 71.8°F22.1°C 77% Calm Calm 2.0 mph3.2 kmh 30.00 in1015.9 mb 0.00 in0.0 mm 0.00 in0.0 mm 0.00 in0.0 mm
12:25 AM 79.4°F26.3°C 71.6°F22.0°C 77% Calm Calm 1.0 mph1.6 kmh 30.00 in1015.9 mb 0.00 in0.0 mm 0.00 in0.0 mm 0.00 in0.0 mm
12:30 AM 79.2°F26.2°C 71.4°F21.9°C 77% Calm Calm 1.0 mph1.6 kmh 30.00 in1015.9 mb 0.00 in0.0 mm 0.00 in0.0 mm 0.00 in0.0 mm
12:35 AM 78.9°F26.1°C 71.5°F21.9°C 78% Calm Calm -- 30.00 in1015.9 mb 0.00 in0.0 mm 0.00 in0.0 mm 0.00 in0.0 mm
12:40 AM 78.7°F25.9°C 71.3°F21.8°C 78% Calm Calm 1.0 mph1.6 kmh 30.00 in1015.9 mb 0.00 in0.0 mm 0.00 in0.0 mm 0.00 in0.0 mm
12:45 AM 78.5°F25.8°C 71.4°F21.9°C 79% Calm Calm 1.0 mph1.6 kmh 30.00 in1015.9 mb 0.00 in0.0 mm 0.00 in0.0 mm 0.00 in0.0 mm
12:50 AM 78.4°F25.8°C 71.3°F21.8°C 79% Calm Calm 1.0 mph1.6 kmh 30.00 in1015.9 mb 0.00 in0.0 mm 0.00 in0.0 mm 0.00 in0.0 mm
12:55 AM 78.2°F25.7°C 71.2°F21.8°C 79% Calm Calm -- 30.00 in1015.9 mb 0.00 in0.0 mm 0.00 in0.0 mm 0.00 in0.0 mm
01:00 AM 78.1°F25.6°C 71.4°F21.9°C 80% Calm Calm -- 30.00 in1015.9 mb 0.00 in0.0 mm 0.00 in0.0 mm 0.00 in0.0 mm
01:05 AM 78.0°F25.6°C 71.3°F21.8°C 80% Calm Calm -- 29.99 in1015.6 mb 0.00 in0.0 mm 0.00 in0.0 mm 0.00 in0.0 mm
01:10 AM 77.8°F25.4°C 71.5°F21.9°C 81% Calm Calm 1.0 mph1.6 kmh 29.99 in1015.6 mb 0.00 in0.0 mm 0.00 in0.0 mm 0.00 in0.0 mm
01:15 AM 77.7°F25.4°C 71.4°F21.9°C 81% Calm Calm 1.0 mph1.6 kmh 29.99 in1015.6 mb 0.00 in0.0 mm 0.00 in0.0 mm 0.00 in0.0 mm
01:20 AM 77.7°F25.4°C 71.4°F21.9°C 81% Calm Calm 1.0 mph1.6 kmh 29.99 in1015.6 mb 0.00 in0.0 mm 0.00 in0.0 mm 0.00 in0.0 mm
01:25 AM 77.5°F25.3°C 71.2°F21.8°C 81% Calm Calm 1.0 mph1.6 kmh 29.99 in1015.6 mb 0.00 in0.0 mm 0.00 in0.0 mm 0.00 in0.0 mm
01:30 AM 77.4°F25.2°C 71.1°F21.7°C 81% Calm Calm 1.0 mph1.6 kmh 29.99 in1015.6 mb 0.00 in0.0 mm 0.00 in0.0 mm 0.00 in0.0 mm
01:35 AM 77.3°F25.2°C 71.4°F21.9°C 82% Calm Calm 1.0 mph1.6 kmh 29.99 in1015.6 mb 0.00 in0.0 mm 0.00 in0.0 mm 0.00 in0.0 mm
01:40 AM 77.2°F25.1°C 71.3°F21.8°C 82% Calm Calm 1.0 mph1.6 kmh 29.98 in1015.2 mb 0.00 in0.0 mm 0.00 in0.0 mm 0.00 in0.0 mm
01:45 AM 77.2°F25.1°C 71.3°F21.8°C 82% Calm Calm 1.0 mph1.6 kmh 29.98 in1015.2 mb 0.00 in0.0 mm 0.00 in0.0 mm 0.00 in0.0 mm
01:50 AM 77.1°F25.1°C 71.2°F21.8°C 82% Calm Calm 1.0 mph1.6 kmh 29.98 in1015.2 mb 0.00 in0.0 mm 0.00 in0.0 mm 0.00 in0.0 mm
01:55 AM 77.0°F25.0°C 71.4°F21.9°C 83% Calm Calm 1.0 mph1.6 kmh 29.98 in1015.2 mb 0.00 in0.0 mm 0.00 in0.0 mm 0.00 in0.0 mm
02:00 AM 76.8°F24.9°C 71.6°F22.0°C 84% Calm Calm 2.0 mph3.2 kmh 29.97 in1014.9 mb 0.00 in0.0 mm 0.00 in0.0 mm 0.00 in0.0 mm
02:05 AM 76.7°F24.8°C 71.8°F22.1°C 85% Calm Calm 2.0 mph3.2 kmh 29.97 in1014.9 mb 0.00 in0.0 mm 0.00 in0.0 mm 0.00 in0.0 mm
02:10 AM 76.6°F24.8°C 71.7°F22.1°C 85% Calm Calm 1.0 mph1.6 kmh 29.97 in1014.9 mb 0.00 in0.0 mm 0.00 in0.0 mm 0.00 in0.0 mm
02:15 AM 76.5°F24.7°C 72.3°F22.4°C 87% 1.0 mph N1.6 kmh N 3.0 mph4.8 kmh 29.97 in1014.9 mb 0.00 in0.0 mm 0.00 in0.0 mm 0.00 in0.0 mm
02:20 AM 76.5°F24.7°C 73.0°F22.8°C 89% 2.0 mph N3.2 kmh N 3.0 mph4.8 kmh 29.97 in1014.9 mb 0.00 in0.0 mm 0.00 in0.0 mm 0.00 in0.0 mm
02:25 AM 76.7°F24.8°C 73.2°F22.9°C 89% 1.0 mph N1.6 kmh N 3.0 mph4.8 kmh 29.96 in1014.6 mb 0.00 in0.0 mm 0.00 in0.0 mm 0.00 in0.0 mm
02:30 AM 76.7°F24.8°C 73.2°F22.9°C 89% Calm Calm 1.0 mph1.6 kmh 29.96 in1014.6 mb 0.00 in0.0 mm 0.00 in0.0 mm 0.00 in0.0 mm
02:35 AM 76.6°F24.8°C 73.1°F22.8°C 89% Calm Calm 1.0 mph1.6 kmh 29.96 in1014.6 mb 0.00 in0.0 mm 0.00 in0.0 mm 0.00 in0.0 mm
02:40 AM 76.5°F24.7°C 73.0°F22.8°C 89% Calm Calm 2.0 mph3.2 kmh 29.96 in1014.6 mb 0.00 in0.0 mm 0.00 in0.0 mm 0.00 in0.0 mm
02:45 AM 76.5°F24.7°C 73.3°F22.9°C 90% Calm Calm 2.0 mph3.2 kmh 29.96 in1014.6 mb 0.00 in0.0 mm 0.00 in0.0 mm 0.00 in0.0 mm
02:50 AM 76.4°F24.7°C 73.2°F22.9°C 90% 1.0 mph N1.6 kmh N 2.0 mph3.2 kmh 29.96 in1014.6 mb 0.00 in0.0 mm 0.00 in0.0 mm 0.00 in0.0 mm
02:55 AM 76.3°F24.6°C 73.5°F23.1°C 91% Calm Calm 1.0 mph1.6 kmh 29.96 in1014.6 mb 0.00 in0.0 mm 0.00 in0.0 mm 0.00 in0.0 mm
03:00 AM 76.3°F24.6°C 73.5°F23.1°C 91% Calm Calm 1.0 mph1.6 kmh 29.96 in1014.6 mb 0.00 in0.0 mm 0.00 in0.0 mm 0.00 in0.0 mm
03:05 AM 76.2°F24.6°C 73.1°F22.8°C 90% 1.0 mph N1.6 kmh N 2.0 mph3.2 kmh 29.95 in1014.2 mb 0.00 in0.0 mm 0.00 in0.0 mm 0.00 in0.0 mm
03:10 AM 76.1°F24.5°C 73.3°F22.9°C 91% Calm Calm 2.0 mph3.2 kmh 29.95 in1014.2 mb 0.00 in0.0 mm 0.00 in0.0 mm 0.00 in0.0 mm
03:15 AM 76.0°F24.4°C 72.9°F22.7°C 90% Calm Calm 1.0 mph1.6 kmh 29.95 in1014.2 mb 0.00 in0.0 mm 0.00 in0.0 mm 0.00 in0.0 mm
03:20 AM 76.0°F24.4°C 72.9°F22.7°C 90% Calm Calm 1.0 mph1.6 kmh 29.95 in1014.2 mb 0.00 in0.0 mm 0.00 in0.0 mm 0.00 in0.0 mm
03:25 AM 75.8°F24.3°C 72.7°F22.6°C 90% Calm Calm 1.0 mph1.6 kmh 29.96 in1014.6 mb 0.00 in0.0 mm 0.00 in0.0 mm 0.00 in0.0 mm
03:30 AM 75.7°F24.3°C 72.6°F22.6°C 90% Calm Calm 1.0 mph1.6 kmh 29.96 in1014.6 mb 0.00 in0.0 mm 0.00 in0.0 mm 0.00 in0.0 mm
03:35 AM 75.5°F24.2°C 72.4°F22.4°C 90% Calm Calm 1.0 mph1.6 kmh 29.96 in1014.6 mb 0.00 in0.0 mm 0.00 in0.0 mm 0.00 in0.0 mm
03:40 AM 75.5°F24.2°C 72.4°F22.4°C 90% Calm Calm 1.0 mph1.6 kmh 29.96 in1014.6 mb 0.00 in0.0 mm 0.00 in0.0 mm 0.00 in0.0 mm
03:45 AM 75.4°F24.1°C 72.3°F22.4°C 90% Calm Calm 1.0 mph1.6 kmh 29.96 in1014.6 mb 0.00 in0.0 mm 0.00 in0.0 mm 0.00 in0.0 mm
03:50 AM 75.2°F24.0°C 72.1°F22.3°C 90% Calm Calm -- 29.96 in1014.6 mb 0.00 in0.0 mm 0.00 in0.0 mm 0.00 in0.0 mm
03:55 AM 75.1°F23.9°C 72.0°F22.2°C 90% Calm Calm 1.0 mph1.6 kmh 29.96 in1014.6 mb 0.00 in0.0 mm 0.00 in0.0 mm 0.00 in0.0 mm
04:00 AM 75.0°F23.9°C 72.2°F22.3°C 91% Calm Calm 1.0 mph1.6 kmh 29.96 in1014.6 mb 0.00 in0.0 mm 0.00 in0.0 mm 0.00 in0.0 mm
04:05 AM 74.9°F23.8°C 72.1°F22.3°C 91% Calm Calm 1.0 mph1.6 kmh 29.96 in1014.6 mb 0.00 in0.0 mm 0.00 in0.0 mm 0.00 in0.0 mm
04:10 AM 75.0°F23.9°C 72.2°F22.3°C 91% Calm Calm 1.0 mph1.6 kmh 29.96 in1014.6 mb 0.00 in0.0 mm 0.00 in0.0 mm 0.00 in0.0 mm
04:15 AM 74.9°F23.8°C 72.1°F22.3°C 91% Calm Calm 1.0 mph1.6 kmh 29.96 in1014.6 mb 0.00 in0.0 mm 0.00 in0.0 mm 0.00 in0.0 mm
04:20 AM 74.8°F23.8°C 72.0°F22.2°C 91% Calm Calm 1.0 mph1.6 kmh 29.96 in1014.6 mb 0.00 in0.0 mm 0.00 in0.0 mm 0.00 in0.0 mm
04:25 AM 74.7°F23.7°C 71.9°F22.2°C 91% Calm Calm -- 29.96 in1014.6 mb 0.00 in0.0 mm 0.00 in0.0 mm 0.00 in0.0 mm
04:30 AM 74.7°F23.7°C 71.9°F22.2°C 91% Calm Calm -- 29.96 in1014.6 mb 0.00 in0.0 mm 0.00 in0.0 mm 0.00 in0.0 mm
04:35 AM 74.6°F23.7°C 72.1°F22.3°C 92% Calm Calm 1.0 mph1.6 kmh 29.96 in1014.6 mb 0.00 in0.0 mm 0.00 in0.0 mm 0.00 in0.0 mm
04:40 AM 74.5°F23.6°C 71.7°F22.1°C 91% Calm Calm 1.0 mph1.6 kmh 29.96 in1014.6 mb 0.00 in0.0 mm 0.00 in0.0 mm 0.00 in0.0 mm
04:45 AM 74.4°F23.6°C 71.6°F22.0°C 91% Calm Calm 1.0 mph1.6 kmh 29.96 in1014.6 mb 0.00 in0.0 mm 0.00 in0.0 mm 0.00 in0.0 mm
04:50 AM 74.4°F23.6°C 71.9°F22.2°C 92% Calm Calm -- 29.96 in1014.6 mb 0.00 in0.0 mm 0.00 in0.0 mm 0.00 in0.0 mm
04:55 AM 74.3°F23.5°C 71.8°F22.1°C 92% Calm Calm -- 29.96 in1014.6 mb 0.00 in0.0 mm 0.00 in0.0 mm 0.00 in0.0 mm
05:00 AM 74.2°F23.4°C 71.7°F22.1°C 92% Calm Calm -- 29.97 in1014.9 mb 0.00 in0.0 mm 0.00 in0.0 mm 0.00 in0.0 mm
05:05 AM 74.1°F23.4°C 71.6°F22.0°C 92% Calm Calm 1.0 mph1.6 kmh 29.97 in1014.9 mb 0.00 in0.0 mm 0.00 in0.0 mm 0.00 in0.0 mm
05:10 AM 73.9°F23.3°C 71.4°F21.9°C 92% Calm Calm 1.0 mph1.6 kmh 29.97 in1014.9 mb 0.00 in0.0 mm 0.00 in0.0 mm 0.00 in0.0 mm
05:15 AM 73.9°F23.3°C 71.7°F22.1°C 93% Calm Calm 1.0 mph1.6 kmh 29.97 in1014.9 mb 0.00 in0.0 mm 0.00 in0.0 mm 0.00 in0.0 mm
05:20 AM 73.9°F23.3°C 71.7°F22.1°C 93% Calm Calm 1.0 mph1.6 kmh 29.97 in1014.9 mb 0.00 in0.0 mm 0.00 in0.0 mm 0.00 in0.0 mm
05:25 AM 73.9°F23.3°C 72.1°F22.3°C 94% Calm Calm 1.0 mph1.6 kmh 29.97 in1014.9 mb 0.00 in0.0 mm 0.00 in0.0 mm 0.00 in0.0 mm
05:30 AM 73.8°F23.2°C 72.0°F22.2°C 94% Calm Calm 1.0 mph1.6 kmh 29.97 in1014.9 mb 0.00 in0.0 mm 0.00 in0.0 mm 0.00 in0.0 mm
05:35 AM 73.9°F23.3°C 72.1°F22.3°C 94% Calm Calm -- 29.97 in1014.9 mb 0.00 in0.0 mm 0.00 in0.0 mm 0.00 in0.0 mm
05:40 AM 73.9°F23.3°C 72.1°F22.3°C 94% Calm Calm -- 29.97 in1014.9 mb 0.00 in0.0 mm 0.00 in0.0 mm 0.00 in0.0 mm
05:45 AM 73.9°F23.3°C 72.4°F22.4°C 95% Calm Calm 1.0 mph1.6 kmh 29.97 in1014.9 mb 0.00 in0.0 mm 0.00 in0.0 mm 0.00 in0.0 mm
05:50 AM 73.8°F23.2°C 72.0°F22.2°C 94% Calm Calm 1.0 mph1.6 kmh 29.97 in1014.9 mb 0.00 in0.0 mm 0.00 in0.0 mm 0.00 in0.0 mm
05:55 AM 73.7°F23.2°C 72.2°F22.3°C 95% Calm Calm 1.0 mph1.6 kmh 29.97 in1014.9 mb 0.00 in0.0 mm 0.00 in0.0 mm 0.00 in0.0 mm
06:00 AM 73.7°F23.2°C 72.2°F22.3°C 95% Calm Calm 1.0 mph1.6 kmh 29.98 in1015.2 mb 0.00 in0.0 mm 0.00 in0.0 mm 0.00 in0.0 mm
06:05 AM 73.7°F23.2°C 72.2°F22.3°C 95% Calm Calm 1.0 mph1.6 kmh 29.98 in1015.2 mb 0.00 in0.0 mm 0.00 in0.0 mm 0.00 in0.0 mm
06:10 AM 73.7°F23.2°C 72.5°F22.5°C 96% Calm Calm 1.0 mph1.6 kmh 29.98 in1015.2 mb 0.00 in0.0 mm 0.00 in0.0 mm 0.00 in0.0 mm
06:15 AM 73.8°F23.2°C 72.6°F22.6°C 96% Calm Calm 1.0 mph1.6 kmh 29.98 in1015.2 mb 0.00 in0.0 mm 0.00 in0.0 mm 0.00 in0.0 mm
06:20 AM 73.8°F23.2°C 72.3°F22.4°C 95% Calm Calm 1.0 mph1.6 kmh 29.98 in1015.2 mb 0.00 in0.0 mm 0.00 in0.0 mm 0.00 in0.0 mm
06:25 AM 73.8°F23.2°C 72.6°F22.6°C 96% Calm Calm -- 29.98 in1015.2 mb 0.00 in0.0 mm 0.00 in0.0 mm 0.00 in0.0 mm
06:30 AM 73.8°F23.2°C 72.6°F22.6°C 96% Calm Calm -- 29.98 in1015.2 mb 0.00 in0.0 mm 0.00 in0.0 mm 0.00 in0.0 mm
06:35 AM 73.7°F23.2°C 72.5°F22.5°C 96% Calm Calm -- 29.99 in1015.6 mb 0.00 in0.0 mm 0.00 in0.0 mm 0.00 in0.0 mm
06:40 AM 73.6°F23.1°C 72.1°F22.3°C 95% Calm Calm -- 29.99 in1015.6 mb 0.00 in0.0 mm 0.00 in0.0 mm 0.00 in0.0 mm
06:45 AM 73.6°F23.1°C 72.4°F22.4°C 96% Calm Calm 1.0 mph1.6 kmh 29.99 in1015.6 mb 0.00 in0.0 mm 0.00 in0.0 mm 0.00 in0.0 mm
06:50 AM 73.7°F23.2°C 72.5°F22.5°C 96% Calm Calm 1.0 mph1.6 kmh 29.99 in1015.6 mb 0.00 in0.0 mm 0.00 in0.0 mm 0.00 in0.0 mm
06:55 AM 73.6°F23.1°C 72.4°F22.4°C 96% Calm Calm 1.0 mph1.6 kmh 29.99 in1015.6 mb 0.00 in0.0 mm 0.00 in0.0 mm 0.00 in0.0 mm
07:00 AM 73.6°F23.1°C 72.4°F22.4°C 96% Calm Calm -- 29.99 in1015.6 mb 0.00 in0.0 mm 0.00 in0.0 mm 0.00 in0.0 mm
07:05 AM 73.7°F23.2°C 72.5°F22.5°C 96% Calm Calm 1.0 mph1.6 kmh 29.99 in1015.6 mb 0.00 in0.0 mm 0.00 in0.0 mm 0.00 in0.0 mm
07:10 AM 73.9°F23.3°C 73.0°F22.8°C 97% Calm Calm 2.0 mph3.2 kmh 29.99 in1015.6 mb 0.00 in0.0 mm 0.00 in0.0 mm 0.00 in0.0 mm
07:15 AM 74.2°F23.4°C 73.3°F22.9°C 97% 1.0 mph N1.6 kmh N 3.0 mph4.8 kmh 30.00 in1015.9 mb 0.00 in0.0 mm 0.00 in0.0 mm 0.00 in0.0 mm
07:20 AM 74.6°F23.7°C 73.7°F23.2°C 97% 1.0 mph N1.6 kmh N 3.0 mph4.8 kmh 30.00 in1015.9 mb 0.00 in0.0 mm 0.00 in0.0 mm 0.00 in0.0 mm
07:25 AM 75.0°F23.9°C 74.1°F23.4°C 97% 1.0 mph N1.6 kmh N 2.0 mph3.2 kmh 30.00 in1015.9 mb 0.00 in0.0 mm 0.00 in0.0 mm 0.00 in0.0 mm
07:30 AM 75.4°F24.1°C 74.5°F23.6°C 97% 1.0 mph N1.6 kmh N 3.0 mph4.8 kmh 30.00 in1015.9 mb 0.00 in0.0 mm 0.00 in0.0 mm 0.00 in0.0 mm
07:35 AM 75.8°F24.3°C 74.9°F23.8°C 97% 1.0 mph N1.6 kmh N 3.0 mph4.8 kmh 30.00 in1015.9 mb 0.00 in0.0 mm 0.00 in0.0 mm 0.00 in0.0 mm
07:40 AM 76.2°F24.6°C 75.0°F23.9°C 96% 2.0 mph N3.2 kmh N 3.0 mph4.8 kmh 30.00 in1015.9 mb 0.00 in0.0 mm 0.00 in0.0 mm 0.00 in0.0 mm
07:45 AM 76.7°F24.8°C 75.2°F24.0°C 95% 2.0 mph N3.2 kmh N 3.0 mph4.8 kmh 30.00 in1015.9 mb 0.00 in0.0 mm 0.00 in0.0 mm 0.00 in0.0 mm
07:50 AM 77.1°F25.1°C 75.2°F24.0°C 94% 1.0 mph N1.6 kmh N 3.0 mph4.8 kmh 30.00 in1015.9 mb 0.00 in0.0 mm 0.00 in0.0 mm 0.00 in0.0 mm
07:55 AM 77.6°F25.3°C 75.4°F24.1°C 93% 1.0 mph N1.6 kmh N 3.0 mph4.8 kmh 30.00 in1015.9 mb 0.00 in0.0 mm 0.00 in0.0 mm 0.00 in0.0 mm
08:00 AM 78.1°F25.6°C 75.6°F24.2°C 92% 2.0 mph N3.2 kmh N 5.0 mph8.0 kmh 30.00 in1015.9 mb 0.00 in0.0 mm 0.00 in0.0 mm 0.00 in0.0 mm
08:05 AM 78.5°F25.8°C 76.0°F24.4°C 92% 2.0 mph N3.2 kmh N 5.0 mph8.0 kmh 30.01 in1016.3 mb 0.00 in0.0 mm 0.00 in0.0 mm 0.00 in0.0 mm
08:10 AM 78.9°F26.1°C 75.7°F24.3°C 90% 2.0 mph NNW3.2 kmh NNW 4.0 mph6.4 kmh 30.01 in1016.3 mb 0.00 in0.0 mm 0.00 in0.0 mm 0.00 in0.0 mm
08:15 AM 79.3°F26.3°C 76.1°F24.5°C 90% 2.0 mph NNW3.2 kmh NNW 4.0 mph6.4 kmh 30.01 in1016.3 mb 0.00 in0.0 mm 0.00 in0.0 mm 0.00 in0.0 mm
08:20 AM 79.9°F26.6°C 76.4°F24.7°C 89% 2.0 mph NNW3.2 kmh NNW 5.0 mph8.0 kmh 30.01 in1016.3 mb 0.00 in0.0 mm 0.00 in0.0 mm 0.00 in0.0 mm
08:25 AM 80.3°F26.8°C 76.4°F24.7°C 88% 3.0 mph NNW4.8 kmh NNW 5.0 mph8.0 kmh 30.01 in1016.3 mb 0.00 in0.0 mm 0.00 in0.0 mm 0.00 in0.0 mm
08:30 AM 80.9°F27.2°C 76.7°F24.8°C 87% 3.0 mph NW4.8 kmh NW 6.0 mph9.7 kmh 30.01 in1016.3 mb 0.00 in0.0 mm 0.00 in0.0 mm 0.00 in0.0 mm
08:35 AM 81.5°F27.5°C 76.9°F24.9°C 86% 3.0 mph NW4.8 kmh NW 6.0 mph9.7 kmh 30.02 in1016.6 mb 0.00 in0.0 mm 0.00 in0.0 mm 0.00 in0.0 mm
08:40 AM 82.2°F27.9°C 77.2°F25.1°C 85% 3.0 mph NW4.8 kmh NW 6.0 mph9.7 kmh 30.02 in1016.6 mb 0.00 in0.0 mm 0.00 in0.0 mm 0.00 in0.0 mm
08:45 AM 82.9°F28.3°C 77.2°F25.1°C 83% 3.0 mph NNW4.8 kmh NNW 6.0 mph9.7 kmh 30.02 in1016.6 mb 0.00 in0.0 mm 0.00 in0.0 mm 0.00 in0.0 mm
08:50 AM 83.5°F28.6°C 77.1°F25.1°C 81% 3.0 mph NNW4.8 kmh NNW 8.0 mph12.9 kmh 30.02 in1016.6 mb 0.00 in0.0 mm 0.00 in0.0 mm 0.00 in0.0 mm
08:55 AM 84.2°F29.0°C 77.0°F25.0°C 79% 3.0 mph NNW4.8 kmh NNW 8.0 mph12.9 kmh 30.02 in1016.6 mb 0.00 in0.0 mm 0.00 in0.0 mm 0.00 in0.0 mm
09:00 AM 84.7°F29.3°C 77.1°F25.1°C 78% 4.0 mph NW6.4 kmh NW 9.0 mph14.5 kmh 30.02 in1016.6 mb 0.00 in0.0 mm 0.00 in0.0 mm 0.00 in0.0 mm
09:05 AM 85.2°F29.6°C 77.2°F25.1°C 77% 4.0 mph NW6.4 kmh NW 9.0 mph14.5 kmh 30.02 in1016.6 mb 0.00 in0.0 mm 0.00 in0.0 mm 0.00 in0.0 mm
09:10 AM 85.6°F29.8°C 77.2°F25.1°C 76% 3.0 mph NW4.8 kmh NW 6.0 mph9.7 kmh 30.02 in1016.6 mb 0.00 in0.0 mm 0.00 in0.0 mm 0.00 in0.0 mm
09:15 AM 86.1°F30.1°C 77.6°F25.3°C 76% 3.0 mph NW4.8 kmh NW 8.0 mph12.9 kmh 30.02 in1016.6 mb 0.00 in0.0 mm 0.00 in0.0 mm 0.00 in0.0 mm
09:20 AM 86.6°F30.3°C 77.3°F25.2°C 74% 3.0 mph NNW4.8 kmh NNW 8.0 mph12.9 kmh 30.02 in1016.6 mb 0.00 in0.0 mm 0.00 in0.0 mm 0.00 in0.0 mm
09:25 AM 87.1°F30.6°C 77.4°F25.2°C 73% 3.0 mph N4.8 kmh N 8.0 mph12.9 kmh 30.02 in1016.6 mb 0.00 in0.0 mm 0.00 in0.0 mm 0.00 in0.0 mm
09:30 AM 87.4°F30.8°C 76.8°F24.9°C 71% 3.0 mph NNW4.8 kmh NNW 7.0 mph11.3 kmh 30.02 in1016.6 mb 0.00 in0.0 mm 0.00 in0.0 mm 0.00 in0.0 mm
09:35 AM 87.5°F30.8°C 76.9°F24.9°C 71% 3.0 mph NW4.8 kmh NW 7.0 mph11.3 kmh 30.02 in1016.6 mb 0.00 in0.0 mm 0.00 in0.0 mm 0.00 in0.0 mm
09:40 AM 88.0°F31.1°C 77.4°F25.2°C 71% 2.0 mph NW3.2 kmh NW 7.0 mph11.3 kmh 30.02 in1016.6 mb 0.00 in0.0 mm 0.00 in0.0 mm 0.00 in0.0 mm
09:45 AM 88.3°F31.3°C 77.3°F25.2°C 70% 2.0 mph NNW3.2 kmh NNW 7.0 mph11.3 kmh 30.02 in1016.6 mb 0.00 in0.0 mm 0.00 in0.0 mm 0.00 in0.0 mm
09:50 AM 88.5°F31.4°C 77.0°F25.0°C 69% 2.0 mph N3.2 kmh N 6.0 mph9.7 kmh 30.02 in1016.6 mb 0.00 in0.0 mm 0.00 in0.0 mm 0.00 in0.0 mm
09:55 AM 88.8°F31.6°C 77.3°F25.2°C 69% 3.0 mph NNW4.8 kmh NNW 7.0 mph11.3 kmh 30.02 in1016.6 mb 0.00 in0.0 mm 0.00 in0.0 mm 0.00 in0.0 mm
10:00 AM 88.8°F31.6°C 76.9°F24.9°C 68% 3.0 mph NNW4.8 kmh NNW 7.0 mph11.3 kmh 30.02 in1016.6 mb 0.00 in0.0 mm 0.00 in0.0 mm 0.00 in0.0 mm
10:05 AM 89.1°F31.7°C 78.0°F25.6°C 70% 3.0 mph NNW4.8 kmh NNW 5.0 mph8.0 kmh 30.02 in1016.6 mb 0.00 in0.0 mm 0.00 in0.0 mm 0.00 in0.0 mm
10:10 AM 89.4°F31.9°C 77.0°F25.0°C 67% 3.0 mph NW4.8 kmh NW 5.0 mph8.0 kmh 30.02 in1016.6 mb 0.00 in0.0 mm 0.00 in0.0 mm 0.00 in0.0 mm
10:15 AM 89.7°F32.1°C 77.3°F25.2°C 67% 2.0 mph NW3.2 kmh NW 5.0 mph8.0 kmh 30.02 in1016.6 mb 0.00 in0.0 mm 0.00 in0.0 mm 0.00 in0.0 mm
10:20 AM 90.2°F32.3°C 77.3°F25.2°C 66% 2.0 mph NW3.2 kmh NW 5.0 mph8.0 kmh 30.02 in1016.6 mb 0.00 in0.0 mm 0.00 in0.0 mm 0.00 in0.0 mm
10:25 AM 90.5°F32.5°C 77.1°F25.1°C 65% 3.0 mph NW4.8 kmh NW 6.0 mph9.7 kmh 30.02 in1016.6 mb 0.00 in0.0 mm 0.00 in0.0 mm 0.00 in0.0 mm
10:30 AM 91.0°F32.8°C 77.6°F25.3°C 65% 3.0 mph NW4.8 kmh NW 7.0 mph11.3 kmh 30.02 in1016.6 mb 0.00 in0.0 mm 0.00 in0.0 mm 0.00 in0.0 mm
10:35 AM 91.6°F33.1°C 77.7°F25.4°C 64% 3.0 mph NNW4.8 kmh NNW 7.0 mph11.3 kmh 30.02 in1016.6 mb 0.00 in0.0 mm 0.00 in0.0 mm 0.00 in0.0 mm
10:40 AM 92.1°F33.4°C 77.7°F25.4°C 63% 2.0 mph NNW3.2 kmh NNW 4.0 mph6.4 kmh 30.02 in1016.6 mb 0.00 in0.0 mm 0.00 in0.0 mm 0.00 in0.0 mm
10:45 AM 92.9°F33.8°C 77.5°F25.3°C 61% 2.0 mph NE3.2 kmh NE 6.0 mph9.7 kmh 30.02 in1016.6 mb 0.00 in0.0 mm 0.00 in0.0 mm 0.00 in0.0 mm
10:50 AM 92.7°F33.7°C 76.8°F24.9°C 60% 2.0 mph NE3.2 kmh NE 6.0 mph9.7 kmh 30.02 in1016.6 mb 0.00 in0.0 mm 0.00 in0.0 mm 0.00 in0.0 mm
10:55 AM 92.0°F33.3°C 77.1°F25.1°C 62% 2.0 mph NE3.2 kmh NE 8.0 mph12.9 kmh 30.02 in1016.6 mb 0.00 in0.0 mm 0.00 in0.0 mm 0.00 in0.0 mm
11:00 AM 91.9°F33.3°C 76.5°F24.7°C 61% 2.0 mph NE3.2 kmh NE 8.0 mph12.9 kmh 30.02 in1016.6 mb 0.00 in0.0 mm 0.00 in0.0 mm 0.00 in0.0 mm
11:05 AM 91.9°F33.3°C 77.5°F25.3°C 63% 3.0 mph NE4.8 kmh NE 7.0 mph11.3 kmh 30.02 in1016.6 mb 0.00 in0.0 mm 0.00 in0.0 mm 0.00 in0.0 mm
11:10 AM 92.3°F33.5°C 76.9°F24.9°C 61% 3.0 mph NE4.8 kmh NE 7.0 mph11.3 kmh 30.02 in1016.6 mb 0.00 in0.0 mm 0.00 in0.0 mm 0.00 in0.0 mm
11:15 AM 92.9°F33.8°C 77.5°F25.3°C 61% 3.0 mph NE4.8 kmh NE 7.0 mph11.3 kmh 30.02 in1016.6 mb 0.00 in0.0 mm 0.00 in0.0 mm 0.00 in0.0 mm
11:20 AM 93.5°F34.2°C 77.5°F25.3°C 60% 3.0 mph ENE4.8 kmh ENE 7.0 mph11.3 kmh 30.02 in1016.6 mb 0.00 in0.0 mm 0.00 in0.0 mm 0.00 in0.0 mm
11:25 AM 93.7°F34.3°C 77.2°F25.1°C 59% 2.0 mph E3.2 kmh E 6.0 mph9.7 kmh 30.03 in1016.9 mb 0.00 in0.0 mm 0.00 in0.0 mm 0.00 in0.0 mm
11:30 AM 93.9°F34.4°C 76.9°F24.9°C 58% 3.0 mph ENE4.8 kmh ENE 7.0 mph11.3 kmh 30.03 in1016.9 mb 0.00 in0.0 mm 0.00 in0.0 mm 0.00 in0.0 mm
11:35 AM 94.4°F34.7°C 77.3°F25.2°C 58% 3.0 mph NE4.8 kmh NE 8.0 mph12.9 kmh 30.03 in1016.9 mb 0.00 in0.0 mm 0.00 in0.0 mm 0.00 in0.0 mm
11:40 AM 94.4°F34.7°C 77.3°F25.2°C 58% 2.0 mph NE3.2 kmh NE 8.0 mph12.9 kmh 30.03 in1016.9 mb 0.00 in0.0 mm 0.00 in0.0 mm 0.00 in0.0 mm
11:45 AM 94.6°F34.8°C 77.0°F25.0°C 57% 2.0 mph E3.2 kmh E 7.0 mph11.3 kmh 30.02 in1016.6 mb 0.00 in0.0 mm 0.00 in0.0 mm 0.00 in0.0 mm
11:50 AM 93.9°F34.4°C 75.8°F24.3°C 56% 2.0 mph NNE3.2 kmh NNE 7.0 mph11.3 kmh 30.02 in1016.6 mb 0.00 in0.0 mm 0.00 in0.0 mm 0.00 in0.0 mm
11:55 AM 93.4°F34.1°C 75.9°F24.4°C 57% 2.0 mph NNW3.2 kmh NNW 5.0 mph8.0 kmh 30.02 in1016.6 mb 0.00 in0.0 mm 0.00 in0.0 mm 0.00 in0.0 mm
12:00 PM 93.1°F33.9°C 75.6°F24.2°C 57% 2.0 mph N3.2 kmh N 5.0 mph8.0 kmh 30.02 in1016.6 mb 0.00 in0.0 mm 0.00 in0.0 mm 0.00 in0.0 mm
12:05 PM 92.8°F33.8°C 74.8°F23.8°C 56% 2.0 mph NNE3.2 kmh NNE 5.0 mph8.0 kmh 30.02 in1016.6 mb 0.00 in0.0 mm 0.00 in0.0 mm 0.00 in0.0 mm
12:10 PM 92.2°F33.4°C 75.3°F24.1°C 58% 3.0 mph NNE4.8 kmh NNE 8.0 mph12.9 kmh 30.02 in1016.6 mb 0.00 in0.0 mm 0.00 in0.0 mm 0.00 in0.0 mm
12:15 PM 91.9°F33.3°C 75.5°F24.2°C 59% 3.0 mph NE4.8 kmh NE 8.0 mph12.9 kmh 30.02 in1016.6 mb 0.00 in0.0 mm 0.00 in0.0 mm 0.00 in0.0 mm
12:20 PM 91.8°F33.2°C 74.9°F23.8°C 58% 2.0 mph NE3.2 kmh NE 5.0 mph8.0 kmh 30.02 in1016.6 mb 0.00 in0.0 mm 0.00 in0.0 mm 0.00 in0.0 mm
12:25 PM 91.7°F33.2°C 75.3°F24.1°C 59% 1.0 mph NNE1.6 kmh NNE 6.0 mph9.7 kmh 30.02 in1016.6 mb 0.00 in0.0 mm 0.00 in0.0 mm 0.00 in0.0 mm
12:30 PM 91.4°F33.0°C 75.1°F23.9°C 59% 2.0 mph NNE3.2 kmh NNE 9.0 mph14.5 kmh 30.02 in1016.6 mb 0.00 in0.0 mm 0.00 in0.0 mm 0.00 in0.0 mm
12:35 PM 91.4°F33.0°C 75.1°F23.9°C 59% 3.0 mph NE4.8 kmh NE 9.0 mph14.5 kmh 30.02 in1016.6 mb 0.00 in0.0 mm 0.00 in0.0 mm 0.00 in0.0 mm
12:40 PM 91.4°F33.0°C 75.1°F23.9°C 59% 2.0 mph NE3.2 kmh NE 5.0 mph8.0 kmh 30.02 in1016.6 mb 0.00 in0.0 mm 0.00 in0.0 mm 0.00 in0.0 mm
12:45 PM 91.4°F33.0°C 75.1°F23.9°C 59% 2.0 mph NNE3.2 kmh NNE 4.0 mph6.4 kmh 30.02 in1016.6 mb 0.00 in0.0 mm 0.00 in0.0 mm 0.00 in0.0 mm
12:50 PM 91.4°F33.0°C 74.5°F23.6°C 58% 3.0 mph NNE4.8 kmh NNE 8.0 mph12.9 kmh 30.02 in1016.6 mb 0.00 in0.0 mm 0.00 in0.0 mm 0.00 in0.0 mm
12:55 PM 91.1°F32.8°C 74.8°F23.8°C 59% 4.0 mph N6.4 kmh N 11.0 mph17.7 kmh 30.01 in1016.3 mb 0.00 in0.0 mm 0.00 in0.0 mm 0.00 in0.0 mm
01:00 PM 90.6°F32.6°C 78.6°F25.9°C 68% 4.0 mph NNW6.4 kmh NNW 11.0 mph17.7 kmh 30.01 in1016.3 mb 0.01 in0.3 mm 0.01 in0.3 mm 0.01 in0.3 mm
01:05 PM 90.0°F32.2°C 78.5°F25.8°C 69% 2.0 mph NW3.2 kmh NW 8.0 mph12.9 kmh 30.01 in1016.3 mb 0.02 in0.5 mm 0.12 in3.0 mm 0.02 in0.5 mm
01:10 PM 88.8°F31.6°C 79.0°F26.1°C 73% 1.0 mph NNW1.6 kmh NNW 2.0 mph3.2 kmh 30.01 in1016.3 mb 0.02 in0.5 mm 0.00 in0.0 mm 0.02 in0.5 mm
01:15 PM 87.9°F31.1°C 79.0°F26.1°C 75% 1.0 mph NNW1.6 kmh NNW 3.0 mph4.8 kmh 30.01 in1016.3 mb 0.02 in0.5 mm 0.00 in0.0 mm 0.02 in0.5 mm
01:20 PM 87.4°F30.8°C 79.3°F26.3°C 77% 1.0 mph NNW1.6 kmh NNW 3.0 mph4.8 kmh 30.01 in1016.3 mb 0.02 in0.5 mm 0.00 in0.0 mm 0.02 in0.5 mm
01:25 PM 87.1°F30.6°C 77.4°F25.2°C 73% Calm Calm 2.0 mph3.2 kmh 30.01 in1016.3 mb 0.02 in0.5 mm 0.00 in0.0 mm 0.02 in0.5 mm
01:30 PM 87.2°F30.7°C 77.9°F25.5°C 74% 1.0 mph NNW1.6 kmh NNW 2.0 mph3.2 kmh 30.00 in1015.9 mb 0.02 in0.5 mm 0.00 in0.0 mm 0.02 in0.5 mm
01:35 PM 87.6°F30.9°C 78.3°F25.7°C 74% Calm Calm 2.0 mph3.2 kmh 30.00 in1015.9 mb 0.02 in0.5 mm 0.00 in0.0 mm 0.02 in0.5 mm
01:40 PM 88.6°F31.4°C 77.1°F25.1°C 69% 1.0 mph NNW1.6 kmh NNW 3.0 mph4.8 kmh 30.00 in1015.9 mb 0.02 in0.5 mm 0.00 in0.0 mm 0.02 in0.5 mm
01:45 PM 90.3°F32.4°C 77.4°F25.2°C 66% 2.0 mph N3.2 kmh N 4.0 mph6.4 kmh 30.00 in1015.9 mb 0.02 in0.5 mm 0.00 in0.0 mm 0.02 in0.5 mm
01:50 PM 91.7°F33.2°C 79.6°F26.4°C 68% 2.0 mph N3.2 kmh N 5.0 mph8.0 kmh 30.00 in1015.9 mb 0.02 in0.5 mm 0.00 in0.0 mm 0.02 in0.5 mm
01:55 PM 92.9°F33.8°C 77.5°F25.3°C 61% 2.0 mph NNE3.2 kmh NNE 5.0 mph8.0 kmh 30.00 in1015.9 mb 0.02 in0.5 mm 0.00 in0.0 mm 0.02 in0.5 mm
02:00 PM 93.8°F34.3°C 76.8°F24.9°C 58% 2.0 mph N3.2 kmh N 4.0 mph6.4 kmh 29.99 in1015.6 mb 0.01 in0.3 mm 0.00 in0.0 mm 0.02 in0.5 mm
02:05 PM 94.9°F34.9°C 76.7°F24.8°C 56% 2.0 mph NNE3.2 kmh NNE 8.0 mph12.9 kmh 29.99 in1015.6 mb 0.00 in0.0 mm 0.00 in0.0 mm 0.02 in0.5 mm
02:10 PM 95.8°F35.4°C 75.9°F24.4°C 53% 3.0 mph NE4.8 kmh NE 8.0 mph12.9 kmh 29.99 in1015.6 mb 0.00 in0.0 mm 0.00 in0.0 mm 0.02 in0.5 mm
02:15 PM 96.5°F35.8°C 74.8°F23.8°C 50% 3.0 mph NNE4.8 kmh NNE 8.0 mph12.9 kmh 29.98 in1015.2 mb 0.00 in0.0 mm 0.00 in0.0 mm 0.02 in0.5 mm
02:20 PM 97.0°F36.1°C 75.3°F24.1°C 50% 3.0 mph NE4.8 kmh NE 8.0 mph12.9 kmh 29.98 in1015.2 mb 0.00 in0.0 mm 0.00 in0.0 mm 0.02 in0.5 mm
02:25 PM 97.5°F36.4°C 73.9°F23.3°C 47% 3.0 mph NE4.8 kmh NE 8.0 mph12.9 kmh 29.98 in1015.2 mb 0.00 in0.0 mm 0.00 in0.0 mm 0.02 in0.5 mm
02:30 PM 98.1°F36.7°C 75.7°F24.3°C 49% 3.0 mph ENE4.8 kmh ENE 8.0 mph12.9 kmh 29.98 in1015.2 mb 0.00 in0.0 mm 0.00 in0.0 mm 0.02 in0.5 mm
02:35 PM 98.5°F36.9°C 76.0°F24.4°C 49% 3.0 mph E4.8 kmh E 8.0 mph12.9 kmh 29.98 in1015.2 mb 0.00 in0.0 mm 0.00 in0.0 mm 0.02 in0.5 mm
02:40 PM 99.0°F37.2°C 74.6°F23.7°C 46% 2.0 mph ENE3.2 kmh ENE 9.0 mph14.5 kmh 29.97 in1014.9 mb 0.00 in0.0 mm 0.00 in0.0 mm 0.02 in0.5 mm
02:45 PM 98.6°F37.0°C 72.9°F22.7°C 44% 3.0 mph NE4.8 kmh NE 9.0 mph14.5 kmh 29.98 in1015.2 mb 0.00 in0.0 mm 0.00 in0.0 mm 0.02 in0.5 mm
02:50 PM 98.3°F36.8°C 73.3°F22.9°C 45% 3.0 mph NE4.8 kmh NE 8.0 mph12.9 kmh 29.98 in1015.2 mb 0.00 in0.0 mm 0.00 in0.0 mm 0.02 in0.5 mm
02:55 PM 98.4°F36.9°C 75.3°F24.1°C 48% 2.0 mph E3.2 kmh E 8.0 mph12.9 kmh 29.98 in1015.2 mb 0.00 in0.0 mm 0.00 in0.0 mm 0.02 in0.5 mm
03:00 PM 98.0°F36.7°C 73.0°F22.8°C 45% 3.0 mph ESE4.8 kmh ESE 8.0 mph12.9 kmh 29.98 in1015.2 mb 0.00 in0.0 mm 0.00 in0.0 mm 0.02 in0.5 mm
03:05 PM 97.5°F36.4°C 73.9°F23.3°C 47% 3.0 mph ESE4.8 kmh ESE 7.0 mph11.3 kmh 29.98 in1015.2 mb 0.00 in0.0 mm 0.00 in0.0 mm 0.02 in0.5 mm
03:10 PM 97.1°F36.2°C 73.5°F23.1°C 47% 3.0 mph ESE4.8 kmh ESE 8.0 mph12.9 kmh 29.98 in1015.2 mb 0.00 in0.0 mm 0.00 in0.0 mm 0.02 in0.5 mm
03:15 PM 96.5°F35.8°C 72.3°F22.4°C 46% 3.0 mph ESE4.8 kmh ESE 9.0 mph14.5 kmh 29.97 in1014.9 mb 0.00 in0.0 mm 0.00 in0.0 mm 0.02 in0.5 mm
03:20 PM 96.2°F35.7°C 72.1°F22.3°C 46% 3.0 mph ESE4.8 kmh ESE 9.0 mph14.5 kmh 29.97 in1014.9 mb 0.00 in0.0 mm 0.00 in0.0 mm 0.02 in0.5 mm
03:25 PM 96.0°F35.6°C 73.1°F22.8°C 48% 2.0 mph E3.2 kmh E 6.0 mph9.7 kmh 29.97 in1014.9 mb 0.00 in0.0 mm 0.00 in0.0 mm 0.02 in0.5 mm
03:30 PM 95.6°F35.3°C 72.8°F22.7°C 48% 3.0 mph ENE4.8 kmh ENE 9.0 mph14.5 kmh 29.96 in1014.6 mb 0.00 in0.0 mm 0.00 in0.0 mm 0.02 in0.5 mm
03:35 PM 95.3°F35.2°C 71.9°F22.2°C 47% 4.0 mph ENE6.4 kmh ENE 10.0 mph16.1 kmh 29.96 in1014.6 mb 0.00 in0.0 mm 0.00 in0.0 mm 0.02 in0.5 mm
03:40 PM 95.1°F35.1°C 72.3°F22.4°C 48% 4.0 mph E6.4 kmh E 10.0 mph16.1 kmh 29.96 in1014.6 mb 0.00 in0.0 mm 0.00 in0.0 mm 0.02 in0.5 mm
03:45 PM 95.2°F35.1°C 73.6°F23.1°C 50% 3.0 mph ESE4.8 kmh ESE 8.0 mph12.9 kmh 29.95 in1014.2 mb 0.00 in0.0 mm 0.00 in0.0 mm 0.02 in0.5 mm
03:50 PM 96.2°F35.7°C 73.9°F23.3°C 49% 3.0 mph ESE4.8 kmh ESE 9.0 mph14.5 kmh 29.95 in1014.2 mb 0.00 in0.0 mm 0.00 in0.0 mm 0.02 in0.5 mm
03:55 PM 97.3°F36.3°C 73.1°F22.8°C 46% 3.0 mph ESE4.8 kmh ESE 9.0 mph14.5 kmh 29.95 in1014.2 mb 0.00 in0.0 mm 0.00 in0.0 mm 0.02 in0.5 mm
04:00 PM 98.0°F36.7°C 73.0°F22.8°C 45% 3.0 mph E4.8 kmh E 10.0 mph16.1 kmh 29.94 in1013.9 mb 0.00 in0.0 mm 0.00 in0.0 mm 0.02 in0.5 mm
04:05 PM 98.0°F36.7°C 72.4°F22.4°C 44% 3.0 mph E4.8 kmh E 10.0 mph16.1 kmh 29.94 in1013.9 mb 0.00 in0.0 mm 0.00 in0.0 mm 0.02 in0.5 mm
04:10 PM 97.4°F36.3°C 72.5°F22.5°C 45% 3.0 mph E4.8 kmh E 7.0 mph11.3 kmh 29.94 in1013.9 mb 0.00 in0.0 mm 0.00 in0.0 mm 0.02 in0.5 mm
04:15 PM 96.7°F35.9°C 71.9°F22.2°C 45% 2.0 mph E3.2 kmh E 6.0 mph9.7 kmh 29.94 in1013.9 mb 0.00 in0.0 mm 0.00 in0.0 mm 0.02 in0.5 mm
04:20 PM 95.7°F35.4°C 72.9°F22.7°C 48% 3.0 mph ESE4.8 kmh ESE 15.0 mph24.1 kmh 29.95 in1014.2 mb 0.00 in0.0 mm 0.00 in0.0 mm 0.02 in0.5 mm
04:25 PM 93.7°F34.3°C 74.5°F23.6°C 54% 6.0 mph SE9.7 kmh SE 15.0 mph24.1 kmh 29.95 in1014.2 mb 0.00 in0.0 mm 0.00 in0.0 mm 0.02 in0.5 mm
04:30 PM 92.0°F33.3°C 74.1°F23.4°C 56% 7.0 mph ESE11.3 kmh ESE 14.0 mph22.5 kmh 29.96 in1014.6 mb 0.00 in0.0 mm 0.00 in0.0 mm 0.02 in0.5 mm
04:35 PM 90.8°F32.7°C 74.0°F23.3°C 58% 5.0 mph ESE8.0 kmh ESE 14.0 mph22.5 kmh 29.97 in1014.9 mb 0.00 in0.0 mm 0.00 in0.0 mm 0.02 in0.5 mm
04:40 PM 89.4°F31.9°C 73.2°F22.9°C 59% 3.0 mph WNW4.8 kmh WNW 8.0 mph12.9 kmh 29.97 in1014.9 mb 0.00 in0.0 mm 0.00 in0.0 mm 0.02 in0.5 mm
04:45 PM 88.3°F31.3°C 73.1°F22.8°C 61% 2.0 mph NW3.2 kmh NW 5.0 mph8.0 kmh 29.97 in1014.9 mb 0.00 in0.0 mm 0.00 in0.0 mm 0.02 in0.5 mm
04:50 PM 87.1°F30.6°C 73.0°F22.8°C 63% 2.0 mph W3.2 kmh W 11.0 mph17.7 kmh 29.97 in1014.9 mb 0.00 in0.0 mm 0.00 in0.0 mm 0.02 in0.5 mm
04:55 PM 85.6°F29.8°C 72.9°F22.7°C 66% 5.0 mph W8.0 kmh W 16.0 mph25.7 kmh 29.97 in1014.9 mb 0.00 in0.0 mm 0.00 in0.0 mm 0.02 in0.5 mm
05:00 PM 83.8°F28.8°C 72.5°F22.5°C 69% 7.0 mph W11.3 kmh W 16.0 mph25.7 kmh 29.97 in1014.9 mb 0.00 in0.0 mm 0.00 in0.0 mm 0.02 in0.5 mm
05:05 PM 82.3°F27.9°C 74.0°F23.3°C 76% 7.0 mph WNW11.3 kmh WNW 13.0 mph20.9 kmh 29.98 in1015.2 mb 0.00 in0.0 mm 0.00 in0.0 mm 0.02 in0.5 mm
05:10 PM 80.8°F27.1°C 74.0°F23.3°C 80% 7.0 mph NW11.3 kmh NW 13.0 mph20.9 kmh 29.99 in1015.6 mb 0.01 in0.3 mm 0.12 in3.0 mm 0.03 in0.8 mm
05:15 PM 79.6°F26.4°C 74.3°F23.5°C 84% 5.0 mph NW8.0 kmh NW 13.0 mph20.9 kmh 30.00 in1015.9 mb 0.14 in3.6 mm 1.56 in39.6 mm 0.16 in4.1 mm
05:20 PM 78.7°F25.9°C 73.8°F23.2°C 85% 3.0 mph NW4.8 kmh NW 9.0 mph14.5 kmh 30.01 in1016.3 mb 0.39 in9.9 mm 3.00 in76.2 mm 0.41 in10.4 mm
05:25 PM 77.5°F25.3°C 73.0°F22.8°C 86% 2.0 mph NW3.2 kmh NW 6.0 mph9.7 kmh 30.00 in1015.9 mb 0.74 in18.8 mm 4.20 in106.7 mm 0.76 in19.3 mm
05:30 PM 76.5°F24.7°C 72.7°F22.6°C 88% 2.0 mph WNW3.2 kmh WNW 6.0 mph9.7 kmh 30.00 in1015.9 mb 0.81 in20.6 mm 0.84 in21.3 mm 0.83 in21.1 mm
05:35 PM 75.9°F24.4°C 72.4°F22.4°C 89% 3.0 mph WNW4.8 kmh WNW 7.0 mph11.3 kmh 30.00 in1015.9 mb 0.85 in21.6 mm 0.48 in12.2 mm 0.87 in22.1 mm
05:40 PM 75.7°F24.3°C 72.9°F22.7°C 91% 2.0 mph NW3.2 kmh NW 7.0 mph11.3 kmh 30.00 in1015.9 mb 0.86 in21.8 mm 0.12 in3.0 mm 0.88 in22.4 mm
05:45 PM 75.6°F24.2°C 73.1°F22.8°C 92% 1.0 mph NW1.6 kmh NW 2.0 mph3.2 kmh 30.00 in1015.9 mb 0.86 in21.8 mm 0.00 in0.0 mm 0.88 in22.4 mm
05:50 PM 75.7°F24.3°C 73.5°F23.1°C 93% 1.0 mph NW1.6 kmh NW 4.0 mph6.4 kmh 30.00 in1015.9 mb 0.86 in21.8 mm 0.00 in0.0 mm 0.88 in22.4 mm
05:55 PM 75.7°F24.3°C 73.5°F23.1°C 93% 3.0 mph SSW4.8 kmh SSW 6.0 mph9.7 kmh 30.00 in1015.9 mb 0.88 in22.4 mm 0.24 in6.1 mm 0.90 in22.9 mm
06:00 PM 75.7°F24.3°C 73.5°F23.1°C 93% 3.0 mph S4.8 kmh S 8.0 mph12.9 kmh 30.00 in1015.9 mb 0.94 in23.9 mm 0.07 in1.8 mm 0.96 in24.4 mm
06:05 PM 75.4°F24.1°C 72.9°F22.7°C 92% 4.0 mph SSE6.4 kmh SSE 10.0 mph16.1 kmh 30.00 in1015.9 mb 0.96 in24.4 mm 0.24 in6.1 mm 0.98 in24.9 mm
06:10 PM 75.2°F24.0°C 73.0°F22.8°C 93% 5.0 mph S8.0 kmh S 10.0 mph16.1 kmh 30.00 in1015.9 mb 0.92 in23.4 mm 0.00 in0.0 mm 0.99 in25.1 mm
06:15 PM 75.1°F23.9°C 73.3°F22.9°C 94% 6.0 mph SSE9.7 kmh SSE 11.0 mph17.7 kmh 30.00 in1015.9 mb 0.78 in19.8 mm 0.00 in0.0 mm 0.99 in25.1 mm
06:20 PM 75.1°F23.9°C 72.6°F22.6°C 92% 6.0 mph SSE9.7 kmh SSE 11.0 mph17.7 kmh 30.00 in1015.9 mb 0.49 in12.4 mm 0.00 in0.0 mm 0.99 in25.1 mm
06:25 PM 74.9°F23.8°C 72.1°F22.3°C 91% 7.0 mph SE11.3 kmh SE 12.0 mph19.3 kmh 30.00 in1015.9 mb 0.23 in5.8 mm 0.00 in0.0 mm 0.99 in25.1 mm
06:30 PM 74.5°F23.6°C 71.4°F21.9°C 90% 7.0 mph SE11.3 kmh SE 12.0 mph19.3 kmh 30.00 in1015.9 mb 0.16 in4.1 mm 0.00 in0.0 mm 1.00 in25.4 mm
06:35 PM 74.3°F23.5°C 71.8°F22.1°C 92% 5.0 mph SE8.0 kmh SE 12.0 mph19.3 kmh 30.00 in1015.9 mb 0.13 in3.3 mm 0.00 in0.0 mm 1.00 in25.4 mm
06:40 PM 74.0°F23.3°C 70.9°F21.6°C 90% 4.0 mph SE6.4 kmh SE 10.0 mph16.1 kmh 30.00 in1015.9 mb 0.13 in3.3 mm 0.00 in0.0 mm 1.01 in25.7 mm
06:45 PM 73.7°F23.2°C 70.9°F21.6°C 91% 4.0 mph SE6.4 kmh SE 10.0 mph16.1 kmh 30.00 in1015.9 mb 0.16 in4.1 mm 0.36 in9.1 mm 1.04 in26.4 mm
06:50 PM 73.3°F22.9°C 70.2°F21.2°C 90% 4.0 mph SSE6.4 kmh SSE 8.0 mph12.9 kmh 30.00 in1015.9 mb 0.16 in4.1 mm 0.00 in0.0 mm 1.04 in26.4 mm
06:55 PM 73.0°F22.8°C 70.2°F21.2°C 91% 4.0 mph SSE6.4 kmh SSE 8.0 mph12.9 kmh 29.99 in1015.6 mb 0.15 in3.8 mm 0.00 in0.0 mm 1.05 in26.7 mm
07:00 PM 73.0°F22.8°C 70.5°F21.4°C 92% 4.0 mph SSE6.4 kmh SSE 7.0 mph11.3 kmh 29.99 in1015.6 mb 0.08 in2.0 mm 0.00 in0.0 mm 1.05 in26.7 mm
07:05 PM 73.1°F22.8°C 71.0°F21.7°C 93% 4.0 mph SSE6.4 kmh SSE 8.0 mph12.9 kmh 29.99 in1015.6 mb 0.07 in1.8 mm 0.00 in0.0 mm 1.05 in26.7 mm
07:10 PM 73.3°F22.9°C 71.5°F21.9°C 94% 4.0 mph SE6.4 kmh SE 8.0 mph12.9 kmh 29.99 in1015.6 mb 0.06 in1.5 mm 0.00 in0.0 mm 1.05 in26.7 mm
07:15 PM 73.5°F23.1°C 71.7°F22.1°C 94% 4.0 mph SSE6.4 kmh SSE 8.0 mph12.9 kmh 30.00 in1015.9 mb 0.06 in1.5 mm 0.00 in0.0 mm 1.05 in26.7 mm
07:20 PM 73.7°F23.2°C 72.2°F22.3°C 95% 4.0 mph SE6.4 kmh SE 8.0 mph12.9 kmh 30.01 in1016.3 mb 0.06 in1.5 mm 0.00 in0.0 mm 1.05 in26.7 mm
07:25 PM 73.9°F23.3°C 72.4°F22.4°C 95% 2.0 mph SE3.2 kmh SE 6.0 mph9.7 kmh 30.01 in1016.3 mb 0.07 in1.8 mm 0.12 in3.0 mm 1.06 in26.9 mm
07:30 PM 74.1°F23.4°C 72.6°F22.6°C 95% 2.0 mph SE3.2 kmh SE 4.0 mph6.4 kmh 30.01 in1016.3 mb 0.06 in1.5 mm 0.00 in0.0 mm 1.06 in26.9 mm
07:35 PM 74.2°F23.4°C 72.7°F22.6°C 95% 1.0 mph SE1.6 kmh SE 4.0 mph6.4 kmh 30.01 in1016.3 mb 0.06 in1.5 mm 0.00 in0.0 mm 1.06 in26.9 mm
07:40 PM 74.3°F23.5°C 72.8°F22.7°C 95% 1.0 mph ESE1.6 kmh ESE 3.0 mph4.8 kmh 30.01 in1016.3 mb 0.05 in1.3 mm 0.00 in0.0 mm 1.06 in26.9 mm
07:45 PM 74.4°F23.6°C 73.2°F22.9°C 96% 1.0 mph ESE1.6 kmh ESE 2.0 mph3.2 kmh 30.01 in1016.3 mb 0.02 in0.5 mm 0.00 in0.0 mm 1.06 in26.9 mm
07:50 PM 74.5°F23.6°C 73.3°F22.9°C 96% 1.0 mph ESE1.6 kmh ESE 2.0 mph3.2 kmh 30.01 in1016.3 mb 0.02 in0.5 mm 0.00 in0.0 mm 1.06 in26.9 mm
07:55 PM 74.7°F23.7°C 73.5°F23.1°C 96% 1.0 mph ESE1.6 kmh ESE 4.0 mph6.4 kmh 30.02 in1016.6 mb 0.01 in0.3 mm 0.00 in0.0 mm 1.06 in26.9 mm
08:00 PM 74.8°F23.8°C 73.6°F23.1°C 96% 2.0 mph ESE3.2 kmh ESE 4.0 mph6.4 kmh 30.02 in1016.6 mb 0.01 in0.3 mm 0.00 in0.0 mm 1.06 in26.9 mm
08:05 PM 74.9°F23.8°C 73.4°F23.0°C 95% 1.0 mph ESE1.6 kmh ESE 4.0 mph6.4 kmh 30.02 in1016.6 mb 0.01 in0.3 mm 0.00 in0.0 mm 1.06 in26.9 mm
08:10 PM 75.1°F23.9°C 73.9°F23.3°C 96% 1.0 mph ESE1.6 kmh ESE 2.0 mph3.2 kmh 30.02 in1016.6 mb 0.01 in0.3 mm 0.00 in0.0 mm 1.06 in26.9 mm
08:15 PM 75.1°F23.9°C 73.6°F23.1°C 95% 1.0 mph ESE1.6 kmh ESE 2.0 mph3.2 kmh 30.03 in1016.9 mb 0.01 in0.3 mm 0.00 in0.0 mm 1.06 in26.9 mm
08:20 PM 75.2°F24.0°C 74.0°F23.3°C 96% 1.0 mph ESE1.6 kmh ESE 2.0 mph3.2 kmh 30.03 in1016.9 mb 0.01 in0.3 mm 0.00 in0.0 mm 1.06 in26.9 mm
08:25 PM 75.2°F24.0°C 74.0°F23.3°C 96% 1.0 mph ESE1.6 kmh ESE 2.0 mph3.2 kmh 30.03 in1016.9 mb 0.00 in0.0 mm 0.00 in0.0 mm 1.06 in26.9 mm
08:30 PM 75.3°F24.1°C 74.1°F23.4°C 96% 1.0 mph ESE1.6 kmh ESE 3.0 mph4.8 kmh 30.02 in1016.6 mb 0.00 in0.0 mm 0.00 in0.0 mm 1.06 in26.9 mm
08:35 PM 75.2°F24.0°C 74.0°F23.3°C 96% 1.0 mph ESE1.6 kmh ESE 3.0 mph4.8 kmh 30.02 in1016.6 mb 0.00 in0.0 mm 0.00 in0.0 mm 1.06 in26.9 mm
08:40 PM 75.3°F24.1°C 74.1°F23.4°C 96% 1.0 mph ESE1.6 kmh ESE 2.0 mph3.2 kmh 30.02 in1016.6 mb 0.00 in0.0 mm 0.00 in0.0 mm 1.06 in26.9 mm
08:45 PM 75.2°F24.0°C 74.0°F23.3°C 96% 1.0 mph ESE1.6 kmh ESE 2.0 mph3.2 kmh 30.02 in1016.6 mb 0.00 in0.0 mm 0.00 in0.0 mm 1.06 in26.9 mm
08:50 PM 75.2°F24.0°C 74.0°F23.3°C 96% Calm Calm 1.0 mph1.6 kmh 30.02 in1016.6 mb 0.00 in0.0 mm 0.00 in0.0 mm 1.06 in26.9 mm
08:55 PM 75.2°F24.0°C 74.0°F23.3°C 96% Calm Calm 2.0 mph3.2 kmh 30.01 in1016.3 mb 0.00 in0.0 mm 0.00 in0.0 mm 1.06 in26.9 mm
09:00 PM 75.2°F24.0°C 74.0°F23.3°C 96% 1.0 mph ESE1.6 kmh ESE 3.0 mph4.8 kmh 30.01 in1016.3 mb 0.00 in0.0 mm 0.00 in0.0 mm 1.06 in26.9 mm
09:05 PM 75.1°F23.9°C 73.9°F23.3°C 96% 2.0 mph SE3.2 kmh SE 4.0 mph6.4 kmh 30.01 in1016.3 mb 0.00 in0.0 mm 0.00 in0.0 mm 1.06 in26.9 mm
09:10 PM 75.1°F23.9°C 73.9°F23.3°C 96% 2.0 mph SSE3.2 kmh SSE 4.0 mph6.4 kmh 30.01 in1016.3 mb 0.00 in0.0 mm 0.00 in0.0 mm 1.06 in26.9 mm
09:15 PM 75.0°F23.9°C 73.8°F23.2°C 96% 2.0 mph SSE3.2 kmh SSE 4.0 mph6.4 kmh 30.01 in1016.3 mb 0.00 in0.0 mm 0.00 in0.0 mm 1.06 in26.9 mm
09:20 PM 74.9°F23.8°C 73.7°F23.2°C 96% 2.0 mph SSE3.2 kmh SSE 5.0 mph8.0 kmh 30.01 in1016.3 mb 0.00 in0.0 mm 0.00 in0.0 mm 1.06 in26.9 mm
09:25 PM 74.9°F23.8°C 73.4°F23.0°C 95% 2.0 mph SSE3.2 kmh SSE 5.0 mph8.0 kmh 30.01 in1016.3 mb 0.00 in0.0 mm 0.00 in0.0 mm 1.06 in26.9 mm
09:30 PM 74.8°F23.8°C 73.3°F22.9°C 95% 2.0 mph S3.2 kmh S 4.0 mph6.4 kmh 30.02 in1016.6 mb 0.00 in0.0 mm 0.00 in0.0 mm 1.06 in26.9 mm
09:35 PM 74.7°F23.7°C 73.2°F22.9°C 95% 2.0 mph S3.2 kmh S 4.0 mph6.4 kmh 30.02 in1016.6 mb 0.00 in0.0 mm 0.00 in0.0 mm 1.06 in26.9 mm
09:40 PM 74.7°F23.7°C 73.5°F23.1°C 96% 2.0 mph S3.2 kmh S 3.0 mph4.8 kmh 30.02 in1016.6 mb 0.00 in0.0 mm 0.00 in0.0 mm 1.06 in26.9 mm
09:45 PM 74.7°F23.7°C 73.5°F23.1°C 96% 2.0 mph S3.2 kmh S 5.0 mph8.0 kmh 30.02 in1016.6 mb 0.00 in0.0 mm 0.00 in0.0 mm 1.06 in26.9 mm
09:50 PM 74.8°F23.8°C 73.6°F23.1°C 96% 3.0 mph SSE4.8 kmh SSE 5.0 mph8.0 kmh 30.02 in1016.6 mb 0.00 in0.0 mm 0.00 in0.0 mm 1.06 in26.9 mm
09:55 PM 74.8°F23.8°C 73.3°F22.9°C 95% 3.0 mph SSE4.8 kmh SSE 6.0 mph9.7 kmh 30.02 in1016.6 mb 0.00 in0.0 mm 0.00 in0.0 mm 1.06 in26.9 mm
10:00 PM 74.8°F23.8°C 73.3°F22.9°C 95% 3.0 mph SSE4.8 kmh SSE 6.0 mph9.7 kmh 30.02 in1016.6 mb 0.00 in0.0 mm 0.00 in0.0 mm 1.06 in26.9 mm
10:05 PM 74.8°F23.8°C 73.3°F22.9°C 95% 2.0 mph SSE3.2 kmh SSE 5.0 mph8.0 kmh 30.02 in1016.6 mb 0.00 in0.0 mm 0.00 in0.0 mm 1.06 in26.9 mm
10:10 PM 74.7°F23.7°C 73.2°F22.9°C 95% 2.0 mph SSE3.2 kmh SSE 5.0 mph8.0 kmh 30.02 in1016.6 mb 0.00 in0.0 mm 0.00 in0.0 mm 1.06 in26.9 mm
10:15 PM 74.6°F23.7°C 73.1°F22.8°C 95% 2.0 mph SSE3.2 kmh SSE 5.0 mph8.0 kmh 30.02 in1016.6 mb 0.00 in0.0 mm 0.00 in0.0 mm 1.06 in26.9 mm
10:20 PM 74.6°F23.7°C 73.1°F22.8°C 95% 2.0 mph SSE3.2 kmh SSE 5.0 mph8.0 kmh 30.02 in1016.6 mb 0.00 in0.0 mm 0.00 in0.0 mm 1.06 in26.9 mm
10:25 PM 74.5°F23.6°C 73.0°F22.8°C 95% 1.0 mph SSE1.6 kmh SSE 4.0 mph6.4 kmh 30.01 in1016.3 mb 0.00 in0.0 mm 0.00 in0.0 mm 1.06 in26.9 mm
10:30 PM 74.4°F23.6°C 72.9°F22.7°C 95% Calm Calm 1.0 mph1.6 kmh 30.01 in1016.3 mb 0.00 in0.0 mm 0.00 in0.0 mm 1.06 in26.9 mm
10:35 PM 74.4°F23.6°C 73.2°F22.9°C 96% Calm Calm 1.0 mph1.6 kmh 30.02 in1016.6 mb 0.00 in0.0 mm 0.00 in0.0 mm 1.06 in26.9 mm
10:40 PM 74.2°F23.4°C 72.7°F22.6°C 95% 1.0 mph SSE1.6 kmh SSE 1.0 mph1.6 kmh 30.02 in1016.6 mb 0.00 in0.0 mm 0.00 in0.0 mm 1.06 in26.9 mm
10:45 PM 74.2°F23.4°C 73.0°F22.8°C 96% Calm Calm 1.0 mph1.6 kmh 30.02 in1016.6 mb 0.00 in0.0 mm 0.00 in0.0 mm 1.06 in26.9 mm
10:50 PM 74.1°F23.4°C 72.6°F22.6°C 95% Calm Calm 1.0 mph1.6 kmh 30.01 in1016.3 mb 0.00 in0.0 mm 0.00 in0.0 mm 1.06 in26.9 mm
10:55 PM 74.0°F23.3°C 72.5°F22.5°C 95% Calm Calm 1.0 mph1.6 kmh 30.01 in1016.3 mb 0.00 in0.0 mm 0.00 in0.0 mm 1.06 in26.9 mm
11:00 PM 73.9°F23.3°C 72.7°F22.6°C 96% Calm Calm 1.0 mph1.6 kmh 30.01 in1016.3 mb 0.00 in0.0 mm 0.00 in0.0 mm 1.06 in26.9 mm
11:05 PM 73.8°F23.2°C 72.6°F22.6°C 96% Calm Calm 1.0 mph1.6 kmh 30.02 in1016.6 mb 0.00 in0.0 mm 0.00 in0.0 mm 1.06 in26.9 mm
11:10 PM 73.7°F23.2°C 72.5°F22.5°C 96% Calm Calm 2.0 mph3.2 kmh 30.02 in1016.6 mb 0.00 in0.0 mm 0.00 in0.0 mm 1.06 in26.9 mm
11:15 PM 73.7°F23.2°C 72.8°F22.7°C 97% 1.0 mph SSE1.6 kmh SSE 4.0 mph6.4 kmh 30.02 in1016.6 mb 0.00 in0.0 mm 0.00 in0.0 mm 1.06 in26.9 mm
11:20 PM 73.8°F23.2°C 72.9°F22.7°C 97% 1.0 mph SSE1.6 kmh SSE 4.0 mph6.4 kmh 30.02 in1016.6 mb 0.00 in0.0 mm 0.00 in0.0 mm 1.06 in26.9 mm
11:25 PM 73.8°F23.2°C 72.9°F22.7°C 97% 2.0 mph SSE3.2 kmh SSE 4.0 mph6.4 kmh 30.02 in1016.6 mb 0.00 in0.0 mm 0.00 in0.0 mm 1.06 in26.9 mm
11:30 PM 73.8°F23.2°C 72.6°F22.6°C 96% 1.0 mph SSE1.6 kmh SSE 4.0 mph6.4 kmh 30.02 in1016.6 mb 0.00 in0.0 mm 0.00 in0.0 mm 1.06 in26.9 mm
11:35 PM 73.7°F23.2°C 72.5°F22.5°C 96% 2.0 mph SSE3.2 kmh SSE 4.0 mph6.4 kmh 30.02 in1016.6 mb 0.00 in0.0 mm 0.00 in0.0 mm 1.06 in26.9 mm
11:40 PM 73.7°F23.2°C 72.5°F22.5°C 96% 2.0 mph SSE3.2 kmh SSE 5.0 mph8.0 kmh 30.02 in1016.6 mb 0.00 in0.0 mm 0.00 in0.0 mm 1.06 in26.9 mm
11:45 PM 73.6°F23.1°C 72.4°F22.4°C 96% 3.0 mph S4.8 kmh S 5.0 mph8.0 kmh 30.02 in1016.6 mb 0.00 in0.0 mm 0.00 in0.0 mm 1.06 in26.9 mm
11:50 PM 73.5°F23.1°C 72.3°F22.4°C 96% 3.0 mph S4.8 kmh S 5.0 mph8.0 kmh 30.02 in1016.6 mb 0.00 in0.0 mm 0.00 in0.0 mm 1.06 in26.9 mm
11:55 PM 73.5°F23.1°C 72.3°F22.4°C 96% 2.0 mph S3.2 kmh S 4.0 mph6.4 kmh 30.02 in1016.6 mb 0.00 in0.0 mm 0.00 in0.0 mm 1.06 in26.9 mm